createdAt,value
2018-11-21T00:01:48.467Z,20.03
2018-11-21T00:04:39.290Z,18.50
2018-11-21T00:07:50.633Z,18.87
2018-11-21T00:10:41.605Z,20.07
2018-11-21T00:13:32.670Z,19.10
2018-11-21T00:16:23.667Z,18.67
2018-11-21T00:19:33.302Z,20.40
2018-11-21T00:22:43.492Z,19.43
2018-11-21T00:25:34.451Z,18.93
2018-11-21T00:28:45.619Z,20.27
2018-11-21T00:31:36.656Z,19.67
2018-11-21T00:34:27.642Z,19.00
2018-11-21T00:37:18.816Z,18.87
2018-11-21T00:40:29.647Z,18.17
2018-11-21T00:43:21.135Z,20.43
2018-11-21T00:46:30.892Z,19.50
2018-11-21T00:49:22.649Z,21.77
2018-11-21T00:52:13.618Z,20.90
2018-11-21T00:55:04.660Z,21.53
2018-11-21T00:58:14.348Z,18.33
2018-11-21T01:01:24.113Z,18.57
2018-11-21T01:04:15.732Z,19.50
2018-11-21T01:07:06.857Z,19.53
2018-11-21T01:09:58.511Z,18.30
2018-11-21T01:12:49.979Z,18.93
2018-11-21T01:15:40.878Z,16.57
2018-11-21T01:18:32.070Z,19.80
2018-11-21T01:21:23.132Z,19.80
2018-11-21T01:24:14.250Z,16.97
2018-11-21T01:27:06.116Z,17.67
2018-11-21T01:30:16.304Z,17.90
2018-11-21T01:33:09.809Z,18.40
2018-11-21T01:36:17.491Z,19.37
2018-11-21T01:39:12.728Z,19.03
2018-11-21T01:42:22.408Z,19.03
2018-11-21T01:45:32.712Z,19.77
2018-11-21T01:48:42.495Z,21.60
2018-11-21T01:51:33.929Z,21.73
2018-11-21T01:54:26.488Z,22.70
2018-11-21T01:57:17.440Z,21.20
2018-11-21T02:00:11.384Z,21.03
2018-11-21T02:03:02.398Z,23.83
2018-11-21T02:06:12.901Z,20.53
2018-11-21T02:09:23.721Z,19.97
2018-11-21T02:12:15.014Z,21.70
2018-11-21T02:15:06.014Z,20.33
2018-11-21T02:17:57.145Z,21.13
2018-11-21T02:20:48.447Z,21.00
2018-11-21T02:23:40.367Z,19.57
2018-11-21T02:26:31.915Z,20.03
2018-11-21T02:29:22.927Z,21.93
2018-11-21T02:32:14.267Z,22.10
2018-11-21T02:35:05.289Z,21.63
2018-11-21T02:37:57.224Z,22.13
2018-11-21T02:40:48.723Z,18.70
2018-11-21T02:43:58.314Z,21.70
2018-11-21T02:47:07.972Z,20.50
2018-11-21T02:50:00.072Z,20.53
2018-11-21T02:52:51.111Z,20.20
2018-11-21T02:55:43.874Z,20.87
2018-11-21T02:58:35.637Z,21.10
2018-11-21T03:01:27.501Z,23.10
2018-11-21T03:04:19.690Z,23.10
2018-11-21T03:10:40.181Z,20.93
2018-11-21T03:13:50.513Z,19.97
2018-11-21T03:17:00.452Z,20.63
2018-11-21T03:19:51.642Z,21.03
2018-11-21T03:22:42.631Z,22.13
2018-11-21T03:25:52.274Z,24.00
2018-11-21T03:28:43.431Z,21.73
2018-11-21T03:34:45.261Z,22.57
2018-11-21T03:37:36.904Z,21.17
2018-11-21T03:40:27.942Z,24.47
2018-11-21T03:43:37.609Z,20.93
2018-11-21T03:46:30.141Z,24.83
2018-11-21T03:49:21.073Z,22.53
2018-11-21T03:52:13.865Z,21.43
2018-11-21T03:55:04.871Z,23.00
2018-11-21T03:58:01.870Z,21.03
2018-11-21T04:00:52.889Z,22.70
2018-11-21T04:03:45.028Z,22.07
2018-11-21T04:06:36.904Z,23.40
2018-11-21T04:09:29.047Z,22.37
2018-11-21T04:12:39.339Z,21.57
2018-11-21T04:15:30.723Z,22.83
2018-11-21T04:18:22.606Z,19.97
2018-11-21T04:21:13.567Z,22.43
2018-11-21T04:24:23.267Z,24.70
2018-11-21T04:30:43.689Z,25.07
2018-11-21T04:33:53.679Z,24.67
2018-11-21T04:36:45.114Z,26.03
2018-11-21T04:46:02.063Z,25.83
2018-11-21T04:48:34.586Z,23.20
2018-11-21T04:51:44.257Z,23.83
2018-11-21T04:54:35.537Z,25.13
2018-11-21T04:57:26.518Z,25.23
2018-11-21T05:00:17.611Z,26.60
2018-11-21T05:03:08.535Z,25.03
2018-11-21T05:06:00.792Z,25.17
2018-11-21T05:09:10.957Z,28.40
2018-11-21T05:12:01.924Z,26.20
2018-11-21T05:14:52.989Z,27.23
2018-11-21T05:17:44.163Z,24.70
2018-11-21T05:20:36.570Z,26.77
2018-11-21T05:23:27.833Z,26.87
2018-11-21T05:26:18.994Z,29.00
2018-11-21T05:29:10.912Z,29.83
2018-11-21T05:32:01.707Z,25.13
2018-11-21T05:34:52.146Z,28.60
2018-11-21T05:37:42.498Z,29.27
2018-11-21T05:40:34.055Z,28.07
2018-11-21T05:43:24.445Z,27.20
2018-11-21T05:49:44.206Z,26.27
2018-11-21T05:52:53.104Z,29.80
2018-11-21T05:56:03.675Z,25.87
2018-11-21T05:59:12.556Z,28.07
2018-11-21T06:05:13.476Z,28.60
2018-11-21T06:08:04.960Z,25.77
2018-11-21T06:10:56.445Z,26.50
2018-11-21T06:13:48.206Z,27.77
2018-11-21T06:16:39.698Z,26.97
2018-11-21T06:19:30.069Z,26.97
2018-11-21T06:22:21.544Z,26.53
2018-11-21T06:25:13.278Z,29.30
2018-11-21T06:28:04.212Z,28.10
2018-11-21T06:30:54.857Z,26.57
2018-11-21T06:33:45.976Z,24.13
2018-11-21T06:36:38.412Z,27.13
2018-11-21T06:39:28.846Z,28.47
2018-11-21T06:42:19.546Z,27.60
2018-11-21T06:45:11.151Z,26.43
2018-11-21T06:48:01.976Z,26.27
2018-11-21T06:50:52.339Z,26.20
2018-11-21T06:53:42.967Z,26.87
2018-11-21T06:56:33.320Z,27.27
2018-11-21T06:59:23.703Z,25.93
2018-11-21T07:02:15.227Z,29.73
2018-11-21T07:05:06.015Z,28.10
2018-11-21T07:07:56.457Z,26.87
2018-11-21T07:10:46.835Z,27.00
2018-11-21T07:13:37.195Z,28.63
2018-11-21T07:19:57.157Z,25.97
2018-11-21T07:22:46.548Z,28.97
2018-11-21T07:25:37.108Z,25.33
2018-11-21T07:28:27.562Z,27.67
2018-11-21T07:31:18.838Z,28.40
2018-11-21T07:34:09.274Z,26.83
2018-11-21T07:37:00.045Z,25.30
2018-11-21T07:39:50.507Z,26.13
2018-11-21T07:42:41.447Z,26.20
2018-11-21T07:45:51.049Z,24.07
2018-11-21T07:49:01.560Z,25.30
2018-11-21T07:51:51.931Z,23.83
2018-11-21T07:54:42.360Z,27.53
2018-11-21T07:57:38.683Z,22.83
2018-11-21T08:01:08.158Z,27.37
2018-11-21T08:04:24.968Z,26.90
2018-11-21T08:07:24.222Z,27.80
2018-11-21T08:10:33.225Z,27.77
2018-11-21T08:13:42.417Z,25.07
2018-11-21T08:16:52.490Z,25.60
2018-11-21T08:20:01.958Z,26.80
2018-11-21T08:23:10.866Z,26.93
2018-11-21T08:26:21.217Z,27.80
2018-11-21T08:29:12.025Z,27.03
2018-11-21T08:32:03.422Z,28.17
2018-11-21T08:34:54.550Z,25.07
2018-11-21T08:37:46.533Z,25.73
2018-11-21T08:40:37.084Z,25.87
2018-11-21T08:43:27.869Z,26.17
2018-11-21T08:46:18.286Z,25.47
2018-11-21T08:49:08.677Z,27.20
2018-11-21T08:52:17.912Z,26.63
2018-11-21T08:55:11.410Z,23.07
2018-11-21T08:58:03.026Z,25.17
2018-11-21T09:00:53.707Z,26.40
2018-11-21T09:03:45.974Z,27.53
2018-11-21T09:06:42.845Z,24.93
2018-11-21T09:09:38.166Z,26.50
2018-11-21T09:12:21.323Z,30.07
2018-11-21T09:15:37.022Z,24.80
2018-11-21T09:18:27.806Z,25.53
2018-11-21T09:24:28.766Z,26.20
2018-11-21T09:27:19.211Z,25.13
2018-11-21T09:30:19.601Z,28.63
2018-11-21T09:33:29.333Z,28.33
2018-11-21T09:36:20.178Z,25.90
2018-11-21T09:39:12.957Z,25.80
2018-11-21T09:42:04.861Z,26.07
2018-11-21T09:44:56.086Z,25.50
2018-11-21T09:47:46.522Z,27.10
2018-11-21T09:50:36.893Z,26.97
2018-11-21T09:53:27.313Z,24.90
2018-11-21T09:56:17.717Z,25.53
2018-11-21T09:59:08.176Z,26.73
2018-11-21T10:02:36.627Z,23.50
2018-11-21T10:05:27.011Z,25.83
2018-11-21T10:08:38.302Z,26.43
2018-11-21T10:11:29.220Z,22.90
2018-11-21T10:14:19.680Z,27.43
2018-11-21T10:17:28.565Z,27.00
2018-11-21T10:20:19.442Z,24.67
2018-11-21T10:23:09.806Z,29.03
2018-11-21T10:26:00.192Z,28.07
2018-11-21T10:28:51.367Z,25.33
2018-11-21T10:31:42.046Z,25.83
2018-11-21T10:34:32.427Z,25.87
2018-11-21T10:37:22.823Z,26.30
2018-11-21T10:40:13.242Z,24.50
2018-11-21T10:43:22.461Z,23.27
2018-11-21T10:46:13.969Z,26.83
2018-11-21T10:49:05.322Z,22.37
2018-11-21T10:51:55.750Z,25.40
2018-11-21T10:54:46.281Z,26.13
2018-11-21T10:57:36.745Z,24.60
2018-11-21T11:00:45.700Z,27.07
2018-11-21T11:03:55.795Z,25.20
2018-11-21T11:07:04.744Z,27.13
2018-11-21T11:10:13.871Z,26.73
2018-11-21T11:13:42.865Z,24.93
2018-11-21T11:16:53.018Z,24.97
2018-11-21T11:20:01.985Z,25.50
2018-11-21T11:23:11.532Z,25.17
2018-11-21T11:26:20.910Z,21.30
2018-11-21T11:29:29.835Z,26.40
2018-11-21T11:32:40.332Z,24.93
2018-11-21T11:35:49.749Z,24.37
2018-11-21T11:39:00.024Z,23.33
2018-11-21T11:42:09.269Z,25.30
2018-11-21T11:45:18.870Z,24.10
2018-11-21T11:48:27.813Z,22.20
2018-11-21T11:51:37.851Z,24.93
2018-11-21T11:58:00.813Z,26.83
2018-11-21T12:01:10.127Z,24.50
2018-11-21T12:04:19.096Z,23.93
2018-11-21T12:07:29.889Z,24.53
2018-11-21T12:10:30.115Z,24.67
2018-11-21T12:13:35.783Z,29.43
2018-11-21T12:22:30.771Z,23.47
2018-11-21T12:25:39.648Z,22.83
2018-11-21T12:28:48.516Z,27.40
2018-11-21T12:31:57.531Z,25.87
2018-11-21T12:35:06.458Z,24.37
2018-11-21T12:38:16.934Z,25.20
2018-11-21T12:41:26.784Z,29.17
2018-11-21T12:44:36.396Z,27.73
2018-11-21T12:47:38.379Z,26.63
2018-11-21T12:50:49.262Z,24.43
2018-11-21T12:53:58.858Z,28.83
2018-11-21T12:57:09.258Z,24.93
2018-11-21T13:00:18.227Z,26.00
2018-11-21T13:03:27.171Z,28.77
2018-11-21T13:06:36.110Z,25.43
2018-11-21T13:09:44.998Z,24.97
2018-11-21T13:12:53.966Z,27.00
2018-11-21T13:16:04.075Z,25.60
2018-11-21T13:19:13.622Z,24.67
2018-11-21T13:22:22.528Z,26.33
2018-11-21T13:25:31.421Z,27.13
2018-11-21T13:28:40.348Z,28.30
2018-11-21T13:31:50.879Z,27.53
2018-11-21T13:34:59.794Z,25.13
2018-11-21T13:38:08.729Z,25.13
2018-11-21T13:41:17.618Z,27.13
2018-11-21T13:44:26.514Z,23.77
2018-11-21T13:47:36.383Z,26.70
2018-11-21T13:50:45.064Z,28.13
2018-11-21T13:53:53.994Z,26.13
2018-11-21T13:57:05.414Z,25.07
2018-11-21T13:59:57.606Z,25.40
2018-11-21T14:02:48.025Z,22.20
2018-11-21T14:05:38.468Z,23.97
2018-11-21T14:08:28.864Z,25.63
2018-11-21T14:11:19.456Z,26.13
2018-11-21T14:14:30.204Z,24.97
2018-11-21T14:17:27.601Z,24.97
2018-11-21T14:20:14.013Z,25.47
2018-11-21T14:23:23.005Z,27.97
2018-11-21T14:26:13.428Z,25.80
2018-11-21T14:29:03.791Z,26.47
2018-11-21T14:32:12.974Z,23.83
2018-11-21T14:35:03.709Z,24.27
2018-11-21T14:38:04.672Z,26.50
2018-11-21T14:41:15.156Z,24.83
2018-11-21T14:44:05.609Z,26.73
2018-11-21T14:46:57.786Z,26.00
2018-11-21T14:50:26.664Z,27.60
2018-11-21T14:56:29.362Z,27.93
2018-11-21T14:59:36.688Z,31.63
2018-11-21T15:02:28.382Z,26.10
2018-11-21T15:05:19.256Z,26.20
2018-11-21T15:08:28.507Z,28.20
2018-11-21T15:11:19.656Z,24.83
2018-11-21T15:14:28.529Z,25.77
2018-11-21T15:17:20.184Z,27.83
2018-11-21T15:20:13.417Z,26.60
2018-11-21T15:23:03.811Z,27.97
2018-11-21T15:25:54.273Z,27.87
2018-11-21T15:28:45.309Z,28.23
2018-11-21T15:31:36.846Z,27.67
2018-11-21T15:34:27.186Z,26.93
2018-11-21T15:37:17.695Z,26.10
2018-11-21T15:40:15.284Z,25.90
2018-11-21T15:43:05.806Z,27.30
2018-11-21T15:45:56.198Z,27.90
2018-11-21T15:48:46.819Z,28.30
2018-11-21T15:51:37.233Z,28.00
2018-11-21T15:54:27.609Z,29.40
2018-11-21T15:57:18.026Z,27.50
2018-11-21T16:00:32.348Z,29.47
2018-11-21T16:03:22.718Z,29.30
2018-11-21T16:06:13.167Z,32.20
2018-11-21T16:09:03.533Z,31.70
2018-11-21T16:11:54.685Z,38.87
2018-11-21T16:14:45.410Z,97.77
2018-11-21T16:17:36.137Z,32.60
2018-11-21T16:20:27.576Z,35.93
2018-11-21T16:23:18.517Z,33.20
2018-11-21T16:26:09.116Z,35.30
2018-11-21T16:28:59.651Z,40.53
2018-11-21T16:31:50.652Z,32.73
2018-11-21T16:34:59.526Z,34.03
2018-11-21T16:37:50.472Z,33.13
2018-11-21T16:40:43.377Z,31.10
2018-11-21T16:43:33.957Z,37.53
2018-11-21T16:46:44.652Z,36.10
2018-11-21T16:49:34.238Z,35.30
2018-11-21T16:52:25.050Z,32.60
2018-11-21T16:55:34.141Z,32.70
2018-11-21T16:58:25.885Z,34.23
2018-11-21T17:01:16.587Z,33.17
2018-11-21T17:04:25.987Z,33.37
2018-11-21T17:07:16.381Z,32.90
2018-11-21T17:10:09.644Z,33.00
2018-11-21T17:13:00.017Z,32.93
2018-11-21T17:16:09.724Z,32.20
2018-11-21T17:19:01.796Z,37.80
2018-11-21T17:22:10.669Z,35.80
2018-11-21T17:25:01.846Z,34.33
2018-11-21T17:27:53.180Z,33.67
2018-11-21T17:33:40.790Z,32.27
2018-11-21T17:36:51.767Z,33.10
2018-11-21T17:39:42.867Z,33.57
2018-11-21T17:42:33.801Z,35.50
2018-11-21T17:45:24.217Z,34.00
2018-11-21T17:48:33.101Z,34.00
2018-11-21T17:54:19.630Z,36.47
2018-11-21T17:57:10.029Z,35.60
2018-11-21T18:00:20.168Z,32.80
2018-11-21T18:03:10.625Z,35.40
2018-11-21T18:06:01.288Z,34.27
2018-11-21T18:08:51.871Z,34.07
2018-11-21T18:14:51.911Z,35.97
2018-11-21T18:17:42.986Z,38.03
2018-11-21T18:20:34.605Z,34.53
2018-11-21T18:23:24.993Z,36.57
2018-11-21T18:26:15.580Z,38.10
2018-11-21T18:29:11.602Z,34.83
2018-11-21T18:32:01.217Z,35.27
2018-11-21T18:34:52.802Z,35.90
2018-11-21T18:37:46.096Z,37.20
2018-11-21T18:40:37.548Z,34.67
2018-11-21T18:43:27.938Z,35.33
2018-11-21T18:46:18.466Z,37.53
2018-11-21T18:49:09.520Z,36.37
2018-11-21T18:51:59.977Z,33.17
2018-11-21T18:54:52.116Z,34.60
2018-11-21T18:58:03.135Z,37.73
2018-11-21T19:00:55.277Z,36.77
2018-11-21T19:03:46.323Z,38.43
2018-11-21T19:06:55.707Z,34.40
2018-11-21T19:09:46.161Z,35.50
2018-11-21T19:12:38.422Z,35.90
2018-11-21T19:15:29.005Z,35.03
2018-11-21T19:18:38.640Z,33.00
2018-11-21T19:21:29.395Z,30.77
2018-11-21T19:24:21.234Z,31.07
2018-11-21T19:27:11.749Z,30.90
2018-11-21T19:30:04.099Z,29.57
2018-11-21T19:35:58.183Z,29.57
2018-11-21T19:38:49.152Z,29.47
2018-11-21T19:41:40.155Z,31.77
2018-11-21T19:44:31.542Z,29.27
2018-11-21T19:47:22.645Z,29.57
2018-11-21T19:50:32.572Z,29.40
2018-11-21T19:53:15.582Z,28.03
2018-11-21T19:56:06.509Z,29.00
2018-11-21T19:59:02.026Z,27.37
2018-11-21T20:01:53.920Z,28.20
2018-11-21T20:05:04.001Z,27.67
2018-11-21T20:07:54.995Z,27.17
2018-11-21T20:10:45.874Z,26.23
2018-11-21T20:13:37.085Z,31.17
2018-11-21T20:16:27.963Z,29.60
2018-11-21T20:19:18.411Z,28.93
2018-11-21T20:22:08.813Z,27.60
2018-11-21T20:24:59.470Z,26.63
2018-11-21T20:27:49.930Z,31.87
2018-11-21T20:30:41.448Z,29.83
2018-11-21T20:33:14.686Z,30.47
2018-11-21T20:36:06.563Z,31.20
2018-11-21T20:38:58.627Z,33.00
2018-11-21T20:42:08.961Z,30.23
2018-11-21T20:45:01.847Z,32.97
2018-11-21T20:47:54.905Z,29.50
2018-11-21T20:50:49.238Z,29.27
2018-11-21T20:53:58.130Z,33.30
2018-11-21T20:57:08.645Z,28.60
2018-11-21T21:00:00.101Z,30.00
2018-11-21T21:03:08.988Z,33.80
2018-11-21T21:05:59.447Z,27.77
2018-11-21T21:08:51.354Z,27.70
2018-11-21T21:11:41.898Z,32.57
2018-11-21T21:14:32.315Z,32.10
2018-11-21T21:17:22.732Z,31.27
2018-11-21T21:20:31.986Z,30.80
2018-11-21T21:23:23.659Z,29.40
2018-11-21T21:26:14.134Z,31.27
2018-11-21T21:32:14.399Z,28.30
2018-11-21T21:35:23.430Z,27.43
2018-11-21T21:38:13.814Z,31.80
2018-11-21T21:41:04.206Z,27.13
2018-11-21T21:43:54.587Z,31.63
2018-11-21T21:46:45.848Z,28.77
2018-11-21T21:49:54.746Z,29.03
2018-11-21T21:52:45.170Z,31.00
2018-11-21T21:55:35.913Z,31.17
2018-11-21T21:58:46.098Z,31.17
2018-11-21T22:01:38.809Z,25.97
2018-11-21T22:04:30.268Z,27.17
2018-11-21T22:07:40.550Z,28.93
2018-11-21T22:10:32.250Z,28.10
2018-11-21T22:13:24.263Z,26.33
2018-11-21T22:16:15.633Z,26.63
2018-11-21T22:19:26.583Z,27.63
2018-11-21T22:22:18.546Z,30.07
2018-11-21T22:25:09.973Z,28.97
2018-11-21T22:28:01.319Z,28.63
2018-11-21T22:30:52.362Z,27.57
2018-11-21T22:33:43.802Z,27.13
2018-11-21T22:36:35.179Z,28.83
2018-11-21T22:39:26.161Z,28.07
2018-11-21T22:42:17.642Z,30.07
2018-11-21T22:45:29.599Z,31.20
2018-11-21T22:48:20.957Z,26.70
2018-11-21T23:00:47.979Z,27.03
2018-11-21T23:03:58.557Z,28.83
2018-11-21T23:06:49.738Z,29.17
2018-11-21T23:09:40.714Z,27.67
2018-11-21T23:12:31.726Z,29.43
2018-11-21T23:15:23.407Z,28.70
2018-11-21T23:18:33.711Z,26.07
2018-11-21T23:21:24.816Z,30.50
2018-11-21T23:24:34.156Z,27.03
2018-11-21T23:27:43.607Z,28.17
2018-11-21T23:30:35.053Z,31.37
2018-11-21T23:33:26.263Z,30.43
2018-11-21T23:36:17.614Z,27.40
2018-11-21T23:39:10.945Z,28.87
2018-11-21T23:42:01.966Z,25.60
2018-11-21T23:44:52.960Z,28.57
2018-11-21T23:47:45.271Z,25.53
2018-11-21T23:50:59.024Z,27.97
2018-11-21T23:53:52.759Z,26.70
2018-11-21T23:57:16.012Z,27.73
2018-11-21T23:59:56.806Z,27.10
